TimeCST,TemperatureF,Dew PointF,Humidity,Sea Level PressureIn,VisibilityMPH,Wind Direction,Wind SpeedMPH,Gust SpeedMPH,PrecipitationIn,Events,Conditions,WindDirDegrees,DateUTC
12:00 AM,17,14,82,29.84,15,SSW,6.9,,,,Overcast,200,2013-01-08 06:00:00
12:00 AM,17.6,14.0,86,29.84,15.0,SSW,5.8,-,N/A,,Overcast,200,2013-01-08 06:00:00
1:00 AM,19.4,15.8,86,29.83,15.0,South,8.1,-,N/A,,Overcast,190,2013-01-08 07:00:00
2:00 AM,21.2,15.8,80,29.83,15.0,South,6.9,-,N/A,,Overcast,180,2013-01-08 08:00:00
3:00 AM,21.2,17.6,86,29.85,15.0,South,6.9,-,N/A,,Overcast,190,2013-01-08 09:00:00
4:00 AM,23.0,19.4,86,29.84,15.0,South,6.9,-,N/A,,Overcast,190,2013-01-08 10:00:00
5:00 AM,19.4,19.4,100,29.85,15.0,SSW,8.1,-,N/A,,Partly Cloudy,200,2013-01-08 11:00:00
6:00 AM,19,17,88,29.86,15,SSW,10.4,,,,,200,2013-01-08 12:00:00
6:00 AM,19.4,17.6,93,29.86,15.0,SSW,9.2,-,N/A,,Clear,200,2013-01-08 12:00:00
7:00 AM,17.6,15.8,93,29.86,15.0,SSW,10.4,-,N/A,,Partly Cloudy,200,2013-01-08 13:00:00
8:00 AM,17.6,15.8,93,29.86,15.0,SSW,10.4,-,N/A,,Scattered Clouds,200,2013-01-08 14:00:00
9:00 AM,15.8,14.0,93,29.85,15.0,South,10.4,-,N/A,,Mostly Cloudy,180,2013-01-08 15:00:00
10:00 AM,19.4,15.8,86,29.86,15.0,South,10.4,-,N/A,,Mostly Cloudy,190,2013-01-08 16:00:00
12:00 PM,25,18,66,29.78,15,SSE,12.7,,,,Overcast,160,2013-01-08 18:00:00
12:00 PM,24.8,17.6,74,29.78,15.0,South,13.8,19.6,N/A,,Overcast,170,2013-01-08 18:00:00
1:00 PM,26.6,19.4,74,29.75,15.0,SSE,13.8,-,N/A,,Overcast,160,2013-01-08 19:00:00
2:00 PM,28.4,19.4,69,29.73,12.0,South,15.0,20.7,N/A,Snow,Light Snow,170,2013-01-08 20:00:00
2:08 PM,-9999,-9999,N/A,-9999,2.5,South,12.7,18.4,N/A,,Unknown,180,2013-01-08 20:08:00
2:34 PM,-9999,-9999,N/A,-9999,1.0,South,16.1,21.9,N/A,,Unknown,170,2013-01-08 20:34:00
3:00 PM,26.6,24.8,93,29.69,1.5,SSE,15.0,-,N/A,Snow,Light Snow,160,2013-01-08 21:00:00
4:00 PM,28.4,26.6,93,29.64,2.0,SSE,17.3,26.5,N/A,Snow,Light Snow,160,2013-01-08 22:00:00
5:00 PM,28.4,26.6,93,29.62,2.0,South,15.0,23.0,N/A,Snow,Light Snow,170,2013-01-08 23:00:00
5:18 PM,-9999,-9999,N/A,-9999,1.0,South,18.4,-,N/A,,Unknown,170,2013-01-08 23:18:00
6:00 PM,30,29,92,29.57,2,South,18.4,,,Snow,Light Snow,180,2013-01-09 00:00:00
6:00 PM,30.2,28.4,93,29.57,2.0,South,19.6,26.5,N/A,Snow,Light Snow,180,2013-01-09 00:00:00
7:00 PM,30.2,28.4,93,29.57,2.0,South,18.4,25.3,N/A,Snow,Light Snow,190,2013-01-09 01:00:00
8:00 PM,30.2,28.4,93,29.57,5.0,SSW,15.0,21.9,N/A,Snow,Light Snow,210,2013-01-09 02:00:00
9:00 PM,30.2,28.4,93,29.55,6.0,SW,10.4,-,N/A,Snow,Light Snow,220,2013-01-09 03:00:00
10:00 PM,30.2,28.4,93,29.53,10.0,SSW,9.2,-,N/A,Snow,Light Snow,200,2013-01-09 04:00:00